Time;durP1;ratioP1;P1;durP2;ratioP2;P2;SDS_P1;SDS_P2;PMS_P1;PMS_P2;Temp;Humidity;BMP_temperature;BMP_pressure;BME280_temperature;BME280_humidity;BME280_pressure;Samples;Min_cycle;Max_cycle;Signal;HPM_P1;HPM_P2
2022/08/18 00:00:01;;;;;;;8.57;6.23;;;;;;;19.83;100.00;98698.09;5053606;28;20249;-85
2022/08/18 00:02:30;;;;;;;7.43;6.03;;;;;;;19.83;100.00;98697.31;5039924;28;20224;-82
2022/08/18 00:04:59;;;;;;;7.30;6.60;;;;;;;19.78;100.00;98701.72;5035737;28;20228;-82
2022/08/18 00:07:28;;;;;;;7.00;6.37;;;;;;;19.73;100.00;98701.84;5053320;28;20287;-82
2022/08/18 00:09:57;;;;;;;7.00;6.50;;;;;;;19.64;100.00;98703.63;5035572;28;20229;-82
2022/08/18 00:12:36;;;;;;;6.77;6.13;;;;;;;19.59;100.00;98703.75;5013865;28;20233;-81
2022/08/18 00:15:08;;;;;;;6.87;6.30;;;;;;;19.54;100.00;98713.91;5014572;28;20306;-86
2022/08/18 00:17:35;;;;;;;8.27;6.83;;;;;;;19.55;100.00;98731.81;5021711;28;20237;-82
2022/08/18 00:20:06;;;;;;;8.47;6.63;;;;;;;19.47;100.00;98730.59;5010056;28;20317;-85
2022/08/18 00:22:33;;;;;;;7.33;6.73;;;;;;;19.44;100.00;98738.53;5007321;28;20226;-86
2022/08/18 00:25:00;;;;;;;7.50;6.73;;;;;;;19.44;100.00;98738.53;5019136;28;20253;-85
2022/08/18 00:27:30;;;;;;;8.50;6.67;;;;;;;19.44;100.00;98754.81;5028250;28;20230;-85
2022/08/18 00:30:00;;;;;;;7.33;6.67;;;;;;;19.39;100.00;98758.41;5036364;28;20232;-85
2022/08/18 00:32:32;;;;;;;8.00;6.53;;;;;;;19.38;100.00;98761.41;5037262;28;20233;-85
2022/08/18 00:35:11;;;;;;;7.30;6.57;;;;;;;19.32;100.00;98764.22;5014780;28;20225;-84
2022/08/18 00:37:41;;;;;;;7.70;7.00;;;;;;;19.27;100.00;98766.22;5009956;28;20248;-84
2022/08/18 00:40:10;;;;;;;7.90;7.20;;;;;;;19.21;100.00;98753.81;5017714;28;20654;-85
2022/08/18 00:42:45;;;;;;;9.57;6.97;;;;;;;19.21;100.00;98762.78;5006309;28;20229;-85
2022/08/18 00:45:15;;;;;;;7.43;6.43;;;;;;;19.16;100.00;98762.06;5007125;28;20227;-85
2022/08/18 00:47:42;;;;;;;7.57;6.87;;;;;;;19.14;100.00;98764.25;5006131;28;20264;-85
2022/08/18 00:50:48;;;;;;;7.30;6.60;;;;;;;19.09;100.00;98765.13;5005911;28;20224;-85
2022/08/18 00:53:23;;;;;;;7.67;6.97;;;;;;;19.09;100.00;98757.00;5028357;28;20246;-85
2022/08/18 00:55:49;;;;;;;8.27;7.40;;;;;;;19.07;100.00;98767.34;5008295;28;20241;-85
2022/08/18 00:58:26;;;;;;;7.87;7.27;;;;;;;19.04;100.00;98767.13;5002910;28;20234;-83
2022/08/18 01:00:53;;;;;;;8.70;7.97;;;;;;;19.00;100.00;98761.47;5003123;28;20232;-82
2022/08/18 01:03:21;;;;;;;9.23;7.70;;;;;;;18.97;100.00;98767.50;5024069;28;20269;-82
2022/08/18 01:05:57;;;;;;;8.73;7.90;;;;;;;18.95;100.00;98758.03;5026606;28;20232;-83
2022/08/18 01:08:25;;;;;;;8.67;7.90;;;;;;;18.96;100.00;98771.31;5029111;28;20579;-83
2022/08/18 01:10:57;;;;;;;7.83;7.10;;;;;;;18.95;100.00;98764.28;5045160;28;20254;-85
2022/08/18 01:13:28;;;;;;;8.67;7.93;;;;;;;18.93;100.00;98766.50;5014180;28;20229;-84
2022/08/18 01:15:55;;;;;;;8.57;7.90;;;;;;;18.91;100.00;98766.78;5009313;28;20252;-84
2022/08/18 01:24:01;;;;;;;8.93;8.13;;;;;;;18.85;100.00;98764.41;5024307;28;20242;-84
2022/08/18 01:26:30;;;;;;;8.63;7.80;;;;;;;18.87;100.00;98773.09;5003286;28;20237;-85
2022/08/18 01:29:04;;;;;;;8.60;7.90;;;;;;;18.84;100.00;98769.06;5011636;28;20226;-83
2022/08/18 01:31:36;;;;;;;8.77;7.93;;;;;;;18.80;100.00;98761.81;5038347;28;20227;-84
2022/08/18 01:34:08;;;;;;;8.40;7.60;;;;;;;18.81;100.00;98749.81;5002970;28;20239;-82
2022/08/18 01:36:39;;;;;;;8.50;7.80;;;;;;;18.70;100.00;98748.38;4992885;28;20250;-82
2022/08/18 01:39:09;;;;;;;9.67;8.10;;;;;;;18.66;100.00;98741.94;5043655;28;20232;-82
2022/08/18 01:41:37;;;;;;;8.83;8.03;;;;;;;18.65;100.00;98743.03;5013514;28;20305;-82
2022/08/18 01:44:04;;;;;;;8.43;7.73;;;;;;;18.62;100.00;98740.88;5012138;28;20261;-83
2022/08/18 01:46:33;;;;;;;8.67;7.93;;;;;;;18.60;100.00;98735.78;5016389;28;20316;-82
2022/08/18 01:49:00;;;;;;;8.47;7.80;;;;;;;18.59;100.00;98739.56;5027691;28;20315;-83
2022/08/18 01:51:28;;;;;;;8.00;7.30;;;;;;;18.60;100.00;98740.38;5010554;28;20249;-81
2022/08/18 01:54:07;;;;;;;8.63;7.93;;;;;;;18.59;100.00;98749.63;5020031;28;20241;-83
2022/08/18 01:56:35;;;;;;;9.40;8.13;;;;;;;18.60;100.00;98752.03;5002834;28;20268;-82
2022/08/18 01:59:02;;;;;;;8.83;8.10;;;;;;;18.58;100.00;98754.22;5050887;28;20234;-81
2022/08/18 02:01:28;;;;;;;9.57;8.30;;;;;;;18.51;100.00;98751.06;5016138;28;20240;-82
2022/08/18 02:04:03;;;;;;;9.23;8.43;;;;;;;18.50;100.00;98749.44;5030127;28;20312;-81
2022/08/18 02:06:50;;;;;;;8.93;8.03;;;;;;;18.49;100.00;98740.50;5035112;28;20282;-82
2022/08/18 02:09:16;;;;;;;8.60;7.90;;;;;;;18.46;100.00;98743.00;5028497;28;20257;-81
2022/08/18 02:11:50;;;;;;;9.03;8.13;;;;;;;18.37;100.00;98732.00;5042808;28;20721;-82
2022/08/18 02:14:22;;;;;;;8.70;8.10;;;;;;;18.32;100.00;98717.69;5032115;28;20240;-80
2022/08/18 02:16:56;;;;;;;9.87;8.90;;;;;;;18.32;100.00;98721.22;5047486;28;20229;-80
2022/08/18 02:19:43;;;;;;;8.30;7.70;;;;;;;18.34;100.00;98729.03;5037152;28;20243;-81
2022/08/18 02:22:13;;;;;;;8.57;7.77;;;;;;;18.28;100.00;98722.91;5044452;28;20272;-81
2022/08/18 02:24:40;;;;;;;8.93;8.03;;;;;;;18.27;100.00;98720.47;5044377;28;20236;-82
2022/08/18 02:27:08;;;;;;;8.83;8.07;;;;;;;18.19;100.00;98713.00;5047161;28;20609;-81
2022/08/18 02:29:35;;;;;;;8.73;8.03;;;;;;;18.17;100.00;98709.75;5033680;28;20229;-82
2022/08/18 02:32:02;;;;;;;10.07;8.13;;;;;;;18.14;100.00;98708.44;5020077;28;20239;-84
2022/08/18 02:34:29;;;;;;;8.87;8.17;;;;;;;18.15;100.00;98693.75;5058220;28;20255;-84
2022/08/18 02:36:58;;;;;;;8.97;8.27;;;;;;;18.07;100.00;98696.31;5027138;28;20340;-84
2022/08/18 02:39:26;;;;;;;9.30;8.40;;;;;;;17.99;100.00;98690.47;5010005;28;20314;-84
2022/08/18 02:41:53;;;;;;;9.43;8.63;;;;;;;17.97;100.00;98686.41;5012344;28;20232;-83
2022/08/18 02:44:20;;;;;;;9.33;8.43;;;;;;;17.88;100.00;98688.16;5014856;28;20259;-83
2022/08/18 02:46:51;;;;;;;9.10;8.30;;;;;;;17.90;100.00;98697.63;5025447;28;20280;-83
2022/08/18 02:49:18;;;;;;;9.43;8.40;;;;;;;17.84;100.00;98687.94;4995142;28;20244;-84
2022/08/18 02:51:45;;;;;;;9.30;8.50;;;;;;;17.80;100.00;98683.38;5010141;28;20768;-82
2022/08/18 02:54:11;;;;;;;9.07;8.17;;;;;;;17.78;100.00;98685.56;5005633;28;20293;-82
2022/08/18 02:56:38;;;;;;;9.43;8.63;;;;;;;17.77;100.00;98682.06;5041221;28;20804;-85
2022/08/18 02:59:11;;;;;;;9.50;8.73;;;;;;;17.71;100.00;98682.41;5027550;28;20323;-85
2022/08/18 03:01:40;;;;;;;9.20;8.40;;;;;;;17.71;100.00;98677.00;5014205;28;20274;-86
2022/08/18 03:04:09;;;;;;;9.20;8.50;;;;;;;17.74;100.00;98690.75;5014786;28;20233;-87
2022/08/18 03:06:37;;;;;;;9.50;8.60;;;;;;;17.70;100.00;98700.56;5011054;28;20314;-87
2022/08/18 03:09:05;;;;;;;9.23;8.43;;;;;;;17.69;100.00;98707.06;5023147;28;20270;-86
2022/08/18 03:11:32;;;;;;;8.87;8.17;;;;;;;17.67;100.00;98720.09;5026512;28;20258;-86
2022/08/18 03:14:00;;;;;;;8.93;8.20;;;;;;;17.71;100.00;98726.56;5016158;28;20261;-86
2022/08/18 03:16:31;;;;;;;11.33;9.07;;;;;;;17.71;100.00;98725.75;5048125;28;20240;-86
2022/08/18 03:19:00;;;;;;;9.70;8.70;;;;;;;17.66;100.00;98726.63;5029015;28;20255;-88
2022/08/18 03:21:30;;;;;;;9.47;8.60;;;;;;;17.65;100.00;98714.16;5023909;28;20294;-88
2022/08/18 03:23:57;;;;;;;10.50;9.47;;;;;;;17.60;100.00;98696.06;5032301;28;20241;-87
2022/08/18 03:26:28;;;;;;;9.70;8.90;;;;;;;17.54;100.00;98686.34;5033252;28;20237;-87
2022/08/18 03:28:56;;;;;;;10.03;9.13;;;;;;;17.47;100.00;98685.06;5026081;28;20228;-87
2022/08/18 03:31:25;;;;;;;10.17;9.23;;;;;;;17.41;100.00;98678.91;5001756;28;20230;-87
2022/08/18 03:33:55;;;;;;;9.53;8.73;;;;;;;17.40;100.00;98688.13;5010664;28;20231;-86
2022/08/18 03:36:27;;;;;;;10.13;8.43;;;;;;;17.42;100.00;98685.94;4998199;28;20234;-88
2022/08/18 03:38:54;;;;;;;9.93;8.93;;;;;;;17.42;100.00;98693.25;4995495;28;20234;-87
2022/08/18 03:41:25;;;;;;;9.90;9.00;;;;;;;17.38;100.00;98690.31;5016477;28;20230;-86
2022/08/18 03:44:13;;;;;;;10.13;9.23;;;;;;;17.44;100.00;98701.91;5018471;28;20241;-86
2022/08/18 03:46:42;;;;;;;9.53;8.73;;;;;;;17.46;100.00;98722.19;5017409;28;20303;-87
2022/08/18 03:49:09;;;;;;;9.63;8.80;;;;;;;17.48;100.00;98720.00;4999475;28;20230;-87
2022/08/18 03:51:36;;;;;;;10.20;9.30;;;;;;;17.44;100.00;98710.84;5033627;28;20230;-87
2022/08/18 03:54:04;;;;;;;9.57;8.87;;;;;;;17.46;100.00;98714.06;5046854;28;20255;-87
2022/08/18 03:56:36;;;;;;;9.43;8.63;;;;;;;17.42;100.00;98718.44;5034135;28;20260;-88
2022/08/18 03:59:06;;;;;;;10.23;9.23;;;;;;;17.41;100.00;98713.28;5031480;28;20240;-87
2022/08/18 04:01:38;;;;;;;9.90;9.03;;;;;;;17.46;100.00;98724.88;5051132;28;20226;-87
2022/08/18 04:04:08;;;;;;;10.23;9.30;;;;;;;17.51;100.00;98730.25;5019477;28;20229;-88
2022/08/18 04:06:40;;;;;;;9.90;9.03;;;;;;;17.58;100.00;98738.06;5034903;28;20226;-87
2022/08/18 04:09:11;;;;;;;9.93;8.93;;;;;;;17.62;100.00;98738.31;5050410;28;20239;-87
2022/08/18 04:11:41;;;;;;;10.13;9.10;;;;;;;17.63;100.00;98732.63;5036094;28;20746;-87
2022/08/18 04:14:17;;;;;;;10.57;9.57;;;;;;;17.72;100.00;98732.78;5036473;28;20690;-87
2022/08/18 04:16:44;;;;;;;9.77;8.93;;;;;;;17.83;100.00;98745.13;5036719;28;20229;-87
2022/08/18 04:19:12;;;;;;;9.43;8.43;;;;;;;17.92;100.00;98737.97;5051951;28;20236;-87
2022/08/18 04:21:41;;;;;;;9.27;8.53;;;;;;;18.06;100.00;98743.53;5017693;28;20237;-89
2022/08/18 04:24:09;;;;;;;10.30;9.30;;;;;;;18.16;100.00;98746.09;5036374;28;20225;-88
2022/08/18 04:26:39;;;;;;;9.87;8.87;;;;;;;18.27;100.00;98745.69;5007522;28;20229;-87
2022/08/18 04:29:06;;;;;;;9.97;8.97;;;;;;;18.36;100.00;98752.06;5015017;28;20256;-87
2022/08/18 04:31:34;;;;;;;9.80;8.83;;;;;;;18.47;100.00;98760.88;5051030;28;20269;-87
2022/08/18 04:34:02;;;;;;;9.17;8.47;;;;;;;18.58;100.00;98756.94;5020125;28;20232;-87
2022/08/18 04:36:30;;;;;;;11.03;8.70;;;;;;;18.70;100.00;98746.47;5003276;28;20305;-87
2022/08/18 04:38:57;;;;;;;9.37;8.53;;;;;;;18.80;100.00;98748.25;5025889;28;20227;-86
2022/08/18 04:41:26;;;;;;;8.53;7.77;;;;;;;18.92;100.00;98746.69;5020528;28;20290;-86
2022/08/18 04:43:58;;;;;;;9.07;8.27;;;;;;;19.04;100.00;98745.41;5036878;28;20267;-81
2022/08/18 04:46:26;;;;;;;10.47;8.40;;;;;;;19.22;100.00;98763.59;5020393;28;20235;-82
2022/08/18 04:48:57;;;;;;;9.07;8.27;;;;;;;19.39;100.00;98772.00;5031192;28;20310;-82
2022/08/18 04:51:28;;;;;;;9.40;8.60;;;;;;;19.55;100.00;98767.13;5037694;28;20306;-84
2022/08/18 04:54:14;;;;;;;8.93;8.03;;;;;;;19.67;100.00;98762.00;5036644;28;20291;-84
2022/08/18 04:56:42;;;;;;;9.20;8.07;;;;;;;19.85;100.00;98763.03;5062122;28;20269;-84
2022/08/18 04:59:11;;;;;;;8.63;7.83;;;;;;;20.06;100.00;98765.06;5050270;28;20237;-83
2022/08/18 05:01:41;;;;;;;8.83;8.10;;;;;;;20.22;100.00;98776.44;5039965;28;20292;-81
2022/08/18 05:04:09;;;;;;;8.80;8.00;;;;;;;20.36;100.00;98780.00;5016093;28;20240;-82
2022/08/18 05:06:36;;;;;;;9.43;8.50;;;;;;;20.54;100.00;98786.41;5048425;28;20317;-82
2022/08/18 05:09:05;;;;;;;9.57;8.03;;;;;;;20.67;100.00;98782.06;5036149;28;20314;-83
2022/08/18 05:11:34;;;;;;;9.53;8.53;;;;;;;20.95;100.00;98780.88;5041535;28;20246;-82
2022/08/18 05:14:09;;;;;;;8.30;7.60;;;;;;;21.23;100.00;98787.06;5026065;28;20311;-82
2022/08/18 05:16:36;;;;;;;8.43;7.63;;;;;;;21.47;100.00;98784.81;5016153;28;20234;-83
2022/08/18 05:19:18;;;;;;;10.07;8.23;;;;;;;21.71;100.00;98789.91;5035401;28;20233;-83
2022/08/18 05:21:50;;;;;;;10.47;8.10;;;;;;;21.85;100.00;98791.44;5021656;28;20239;-83
2022/08/18 05:24:19;;;;;;;8.57;7.77;;;;;;;21.97;100.00;98799.09;5027526;28;20237;-82
2022/08/18 05:26:48;;;;;;;8.32;7.40;;;;;;;22.13;100.00;98797.53;5024607;28;20273;-83
2022/08/18 05:29:15;;;;;;;9.07;8.13;;;;;;;22.37;100.00;98795.22;5025596;28;20240;-84
2022/08/18 05:31:46;;;;;;;9.10;8.20;;;;;;;22.57;100.00;98796.56;5033057;28;20260;-83
2022/08/18 05:34:14;;;;;;;8.20;7.50;;;;;;;22.61;98.67;98800.25;5046060;28;20363;-83
2022/08/18 05:36:47;;;;;;;9.43;7.80;;;;;;;22.51;98.96;98803.28;5003635;28;20229;-83
2022/08/18 05:39:17;;;;;;;9.88;7.50;;;;;;;22.59;98.51;98807.13;5039010;28;20244;-82
2022/08/18 05:41:50;;;;;;;15.48;8.15;;;;;;;22.73;97.16;98797.72;5058484;28;20234;-88
2022/08/18 05:44:36;;;;;;;8.80;7.90;;;;;;;22.90;94.79;98786.03;5034583;28;20229;-82
2022/08/18 05:47:17;;;;;;;9.45;7.70;;;;;;;23.13;90.86;98783.94;5028360;28;20237;-85
2022/08/18 05:49:47;;;;;;;9.00;8.07;;;;;;;23.35;89.38;98788.41;5005836;28;20238;-84
2022/08/18 05:52:54;;;;;;;8.57;7.75;;;;;;;23.58;85.27;98785.19;5041065;28;20238;-82
2022/08/18 05:58:23;;;;;;;8.68;7.57;;;;;;;24.13;79.98;98778.88;5036353;28;20230;-84
2022/08/18 06:01:07;;;;;;;8.88;7.93;;;;;;;24.42;75.96;98787.16;5046604;28;20225;-84
2022/08/18 06:03:41;;;;;;;9.40;8.10;;;;;;;24.75;72.87;98779.03;5040941;28;20730;-85
2022/08/18 06:06:16;;;;;;;8.50;7.70;;;;;;;25.07;70.39;98771.25;5031555;28;20316;-84
2022/08/18 06:08:50;;;;;;;9.77;7.45;;;;;;;25.42;67.56;98778.03;4997569;28;20232;-85
2022/08/18 06:11:16;;;;;;;8.63;7.80;;;;;;;25.69;65.43;98782.94;5030353;28;20232;-83
2022/08/18 06:13:48;;;;;;;8.30;7.25;;;;;;;25.90;63.99;98791.09;5030433;28;20295;-84
2022/08/18 06:16:31;;;;;;;8.23;6.93;;;;;;;26.13;61.47;98795.00;5030591;28;20228;-84
2022/08/18 06:19:29;;;;;;;9.00;6.60;;;;;;;26.39;59.78;98802.97;5010435;28;20624;-84
2022/08/18 06:21:58;;;;;;;9.23;7.15;;;;;;;26.48;60.88;98789.09;5024113;28;20448;-84
2022/08/18 06:24:36;;;;;;;8.35;7.55;;;;;;;26.44;62.67;98799.19;5027275;28;20617;-84
2022/08/18 06:27:09;;;;;;;8.88;7.90;;;;;;;26.29;65.53;98804.22;5029785;28;20241;-84
2022/08/18 06:30:12;;;;;;;9.07;7.03;;;;;;;26.29;65.39;98806.97;5022260;28;20775;-84
2022/08/18 06:33:09;;;;;;;7.60;6.90;;;;;;;26.42;64.48;98806.94;5048690;28;20236;-83
2022/08/18 06:35:40;;;;;;;7.63;6.78;;;;;;;26.49;63.73;98808.00;5046375;28;20736;-83
2022/08/18 06:41:17;;;;;;;7.18;6.57;;;;;;;26.51;62.60;98821.38;5055441;28;20279;-84
2022/08/18 06:44:09;;;;;;;6.95;6.22;;;;;;;26.66;58.82;98809.69;5054317;28;20730;-84
2022/08/18 06:46:46;;;;;;;7.00;6.35;;;;;;;26.72;56.81;98816.56;5047362;28;20244;-82
2022/08/18 06:49:38;;;;;;;8.32;6.95;;;;;;;26.80;57.37;98823.06;5035491;28;20316;-84
2022/08/18 06:52:29;;;;;;;6.60;5.88;;;;;;;27.05;57.51;98830.16;5052082;28;20237;-83
2022/08/18 06:54:58;;;;;;;8.50;5.78;;;;;;;27.20;56.95;98836.88;5004165;28;20688;-82
2022/08/18 06:57:32;;;;;;;6.32;5.20;;;;;;;27.31;56.34;98848.97;5050076;28;20320;-82
2022/08/18 07:00:06;;;;;;;8.00;6.38;;;;;;;27.43;54.96;98855.25;5052020;28;20221;-82
2022/08/18 07:02:43;;;;;;;7.03;6.38;;;;;;;27.58;54.45;98861.97;5056394;28;20230;-84
2022/08/18 07:05:13;;;;;;;6.60;6.00;;;;;;;27.70;55.08;98861.94;5036876;28;20256;-83
2022/08/18 07:07:41;;;;;;;7.28;5.55;;;;;;;27.85;53.68;98863.13;5064950;28;20221;-82
2022/08/18 07:10:32;;;;;;;6.22;5.55;;;;;;;27.96;51.81;98862.25;5036291;28;20321;-82
2022/08/18 07:13:06;;;;;;;7.15;6.10;;;;;;;28.01;50.30;98862.00;5050371;28;20230;-83
2022/08/18 07:15:33;;;;;;;8.07;5.63;;;;;;;28.17;49.99;98864.81;5066966;28;20743;-84
2022/08/18 07:18:06;;;;;;;7.47;5.80;;;;;;;28.36;50.44;98872.38;5037160;28;20879;-84
2022/08/18 07:20:55;;;;;;;5.90;5.50;;;;;;;28.32;50.80;98863.22;5024289;28;20237;-85
2022/08/18 07:23:37;;;;;;;6.97;5.47;;;;;;;28.46;50.33;98871.84;5033156;28;20242;-83
2022/08/18 07:26:10;;;;;;;6.45;5.43;;;;;;;28.65;50.09;98876.63;5046749;28;20239;-83
2022/08/18 07:28:45;;;;;;;9.00;6.38;;;;;;;28.73;49.38;98873.72;5006998;28;20225;-82
2022/08/18 07:31:25;;;;;;;6.72;6.00;;;;;;;28.82;48.65;98877.06;5042916;28;20602;-82
2022/08/18 07:34:14;;;;;;;6.57;5.95;;;;;;;28.66;47.00;98870.75;5043723;28;20241;-85
2022/08/18 07:36:49;;;;;;;7.28;5.88;;;;;;;28.64;48.86;98878.59;5035812;28;20647;-82
2022/08/18 07:39:39;;;;;;;8.40;6.20;;;;;;;28.64;47.42;98869.50;5021941;28;20233;-83
2022/08/18 07:42:43;;;;;;;7.07;6.40;;;;;;;28.58;47.36;98859.91;5042948;28;20226;-82
2022/08/18 07:45:41;;;;;;;8.60;6.28;;;;;;;28.49;47.96;98853.78;5028658;28;20226;-81
2022/08/18 07:48:14;;;;;;;8.85;6.30;;;;;;;28.40;47.72;98857.53;5028970;28;20234;-82
2022/08/18 07:51:23;;;;;;;6.53;5.95;;;;;;;28.53;48.24;98852.72;5036083;28;20229;-84
2022/08/18 07:54:04;;;;;;;9.02;6.45;;;;;;;28.64;46.94;98850.22;5021526;28;20241;-84
2022/08/18 07:56:41;;;;;;;8.90;5.97;;;;;;;28.75;48.03;98862.31;5037386;28;20234;-84
2022/08/18 07:59:15;;;;;;;9.40;6.32;;;;;;;28.67;47.87;98879.81;5051101;28;20229;-82
2022/08/18 08:01:51;;;;;;;9.90;6.30;;;;;;;28.62;47.77;98874.56;5004255;28;20242;-82
2022/08/18 08:04:38;;;;;;;9.88;6.40;;;;;;;28.59;47.15;98876.09;5022496;28;20685;-83
2022/08/18 08:07:10;;;;;;;7.93;5.72;;;;;;;28.75;47.58;98878.84;5032459;28;20226;-83
2022/08/18 08:10:05;;;;;;;9.30;6.03;;;;;;;28.74;48.14;98871.75;5001355;28;20293;-81
2022/08/18 08:12:37;;;;;;;7.53;5.63;;;;;;;28.66;47.68;98870.75;5068809;28;20229;-82
2022/08/18 08:15:10;;;;;;;8.13;5.85;;;;;;;28.85;48.31;98875.53;5052358;28;21353;-84
2022/08/18 08:18:00;;;;;;;9.35;6.13;;;;;;;29.06;47.51;98867.78;5049546;28;20321;-82
2022/08/18 08:20:36;;;;;;;11.23;6.22;;;;;;;29.01;47.78;98875.53;5013336;28;20245;-82
2022/08/18 08:23:03;;;;;;;6.85;5.95;;;;;;;28.87;49.59;98874.03;5035923;28;20308;-82
2022/08/18 08:25:40;;;;;;;7.03;6.28;;;;;;;28.75;49.69;98867.81;5035579;28;20312;-82
2022/08/18 08:28:31;;;;;;;8.10;6.25;;;;;;;28.77;48.49;98857.25;5031758;28;20237;-81
2022/08/18 08:30:58;;;;;;;8.18;6.03;;;;;;;28.71;49.34;98855.91;5031500;28;20285;-82
2022/08/18 08:33:55;;;;;;;8.80;5.88;;;;;;;28.75;48.56;98846.56;5024551;28;20233;-82
2022/08/18 08:36:31;;;;;;;9.25;6.25;;;;;;;28.87;48.50;98843.72;5070960;28;20240;-81
2022/08/18 08:39:03;;;;;;;6.22;5.60;;;;;;;28.91;49.87;98843.78;5019319;28;20229;-84
2022/08/18 08:41:34;;;;;;;9.63;5.60;;;;;;;29.17;48.21;98838.44;5025742;28;20242;-84
2022/08/18 08:44:09;;;;;;;7.55;5.60;;;;;;;29.24;47.37;98835.88;5034947;28;20572;-84
2022/08/18 08:46:44;;;;;;;9.23;5.88;;;;;;;29.44;47.59;98833.13;5033732;28;20234;-89
2022/08/18 08:49:23;;;;;;;8.10;5.95;;;;;;;29.46;47.70;98831.59;5013412;28;20236;-84
2022/08/18 08:51:56;;;;;;;8.20;5.75;;;;;;;29.77;47.42;98818.81;5054894;28;20256;-82
2022/08/18 08:54:27;;;;;;;5.47;4.90;;;;;;;29.89;44.84;98810.38;5016695;28;20238;-82
2022/08/18 08:56:55;;;;;;;6.75;5.30;;;;;;;30.01;45.06;98796.38;5017932;28;20233;-83
2022/08/18 08:59:23;;;;;;;8.30;6.15;;;;;;;29.72;47.27;98793.06;5027397;28;20311;-83
2022/08/18 09:02:25;;;;;;;11.05;5.63;;;;;;;30.29;45.27;98787.75;5032094;28;20259;-84
2022/08/18 09:05:17;;;;;;;10.68;6.18;;;;;;;30.51;44.27;98796.06;4996646;28;20264;-82
2022/08/18 09:08:16;;;;;;;6.55;5.25;;;;;;;30.54;43.91;98792.56;5041450;28;20238;-81
2022/08/18 09:11:16;;;;;;;7.45;5.60;;;;;;;30.69;43.99;98790.00;5040178;28;20217;-83
2022/08/18 09:14:11;;;;;;;7.00;5.80;;;;;;;30.87;44.20;98785.50;5017468;28;20241;-82
2022/08/18 09:16:50;;;;;;;8.57;5.70;;;;;;;30.93;44.17;98790.34;5059418;28;20233;-84
2022/08/18 09:19:25;;;;;;;6.95;5.72;;;;;;;31.33;43.27;98795.22;5062969;28;20319;-83
2022/08/18 09:22:12;;;;;;;7.53;6.28;;;;;;;31.37;42.43;98798.03;5050858;28;20734;-81
2022/08/18 09:24:44;;;;;;;10.55;5.80;;;;;;;31.54;41.80;98782.81;5031741;28;20221;-84
2022/08/18 09:27:14;;;;;;;10.27;6.38;;;;;;;31.69;40.90;98790.09;5043285;28;20230;-81
2022/08/18 09:29:57;;;;;;;5.70;4.93;;;;;;;31.96;40.85;98786.06;5031126;28;20253;-82
2022/08/18 09:32:24;;;;;;;7.75;5.50;;;;;;;32.09;40.51;98781.81;5031602;28;20323;-82
2022/08/18 09:35:09;;;;;;;7.43;5.50;;;;;;;32.36;40.26;98781.66;5026350;28;20311;-84
2022/08/18 09:41:30;;;;;;;8.32;5.38;;;;;;;32.62;39.75;98784.19;5018191;28;20243;-82
2022/08/18 09:43:39;;;;;;;10.80;6.07;;;;;;;33.00;39.14;98780.88;5051337;28;20229;-83
2022/08/18 09:46:07;;;;;;;7.05;5.72;;;;;;;32.88;39.42;98770.13;5024067;28;20692;-82
2022/08/18 09:48:39;;;;;;;7.40;5.60;;;;;;;32.88;38.29;98761.81;5032161;28;20317;-81
2022/08/18 09:51:36;;;;;;;5.65;4.80;;;;;;;33.45;37.72;98748.19;5031449;28;20226;-84
2022/08/18 09:54:16;;;;;;;10.07;5.38;;;;;;;33.59;37.48;98743.47;5041548;28;20290;-82
2022/08/18 09:56:49;;;;;;;6.32;5.32;;;;;;;33.67;36.46;98744.28;5039352;28;20245;-82
2022/08/18 09:59:36;;;;;;;8.30;5.25;;;;;;;33.88;36.52;98740.72;5037639;28;20229;-82
2022/08/18 10:02:06;;;;;;;17.67;6.18;;;;;;;34.12;35.47;98755.81;5032742;28;20612;-83
2022/08/18 10:04:49;;;;;;;13.13;5.68;;;;;;;34.29;35.29;98744.75;5040140;28;20256;-80
2022/08/18 10:07:21;;;;;;;7.65;4.95;;;;;;;34.58;34.80;98750.25;5011533;28;20262;-81
2022/08/18 10:09:51;;;;;;;8.68;4.70;;;;;;;34.78;34.78;98751.41;5009822;28;20293;-84
2022/08/18 10:12:35;;;;;;;7.55;5.10;;;;;;;34.91;34.37;98749.78;5047587;28;20226;-84
2022/08/18 10:15:33;;;;;;;5.22;4.70;;;;;;;35.09;32.52;98756.06;5036294;28;20232;-84
2022/08/18 10:18:34;;;;;;;6.00;4.72;;;;;;;35.15;33.17;98750.88;5019206;28;20225;-84
2022/08/18 10:21:26;;;;;;;5.45;4.90;;;;;;;35.30;33.14;98736.53;5028789;28;20233;-84
2022/08/18 10:24:09;;;;;;;6.80;4.88;;;;;;;35.59;32.57;98733.59;5046795;28;20268;-84
2022/08/18 10:26:55;;;;;;;5.00;4.50;;;;;;;35.78;32.42;98730.28;5046178;28;20225;-83
2022/08/18 10:29:28;;;;;;;8.13;5.00;;;;;;;35.54;32.95;98729.22;5034320;28;20253;-81
2022/08/18 10:31:58;;;;;;;8.98;5.38;;;;;;;35.61;33.43;98717.22;5050685;28;20739;-84
2022/08/18 10:34:47;;;;;;;8.82;5.45;;;;;;;35.64;33.39;98714.44;5034641;28;20237;-86
2022/08/18 10:37:22;;;;;;;10.45;5.22;;;;;;;35.78;32.35;98716.38;5024344;28;20223;-84
2022/08/18 10:39:56;;;;;;;6.78;5.40;;;;;;;35.54;32.24;98723.66;5016255;28;20222;-84
2022/08/18 10:42:27;;;;;;;7.60;5.32;;;;;;;35.62;32.44;98722.41;5017617;28;20230;-84
2022/08/18 10:45:19;;;;;;;9.20;4.50;;;;;;;35.99;31.64;98709.81;5009961;28;20221;-82
2022/08/18 10:47:59;;;;;;;6.10;4.80;;;;;;;36.04;32.80;98703.78;5055246;28;20308;-83
2022/08/18 10:50:28;;;;;;;8.43;5.05;;;;;;;36.22;33.01;98703.66;5063610;28;20302;-81
2022/08/18 10:53:23;;;;;;;11.20;7.05;;;;;;;36.09;32.72;98706.13;5027244;28;20340;-83
2022/08/18 10:56:25;;;;;;;8.07;5.10;;;;;;;35.87;33.91;98708.31;5051366;28;20230;-81
2022/08/18 10:59:06;;;;;;;8.05;5.28;;;;;;;35.94;32.77;98727.75;5022737;28;20264;-82
2022/08/18 11:02:01;;;;;;;12.45;6.63;;;;;;;35.91;32.34;98717.44;5057279;28;20225;-83
2022/08/18 11:04:43;;;;;;;7.30;5.18;;;;;;;36.14;32.49;98708.50;5056334;28;20338;-82
2022/08/18 11:07:14;;;;;;;8.82;5.18;;;;;;;36.14;32.20;98694.56;5048004;28;20232;-81
2022/08/18 11:09:48;;;;;;;4.70;4.10;;;;;;;36.22;31.76;98689.72;5055000;28;20237;-83
2022/08/18 11:12:54;;;;;;;7.25;3.97;;;;;;;35.91;32.51;98674.84;5056793;28;20244;-81
2022/08/18 11:15:34;;;;;;;5.95;4.40;;;;;;;35.87;31.48;98674.88;5038325;28;20238;-82
2022/08/18 11:18:09;;;;;;;6.50;4.28;;;;;;;36.06;31.80;98679.09;5035990;28;20281;-82
2022/08/18 11:20:38;;;;;;;6.50;4.05;;;;;;;36.18;30.86;98668.25;5021672;28;20231;-85
2022/08/18 11:23:14;;;;;;;6.68;4.05;;;;;;;36.23;30.59;98655.06;5033315;28;20237;-84
2022/08/18 11:25:41;;;;;;;7.53;4.03;;;;;;;36.12;30.38;98655.13;5017160;28;20673;-83
2022/08/18 11:28:19;;;;;;;4.43;3.95;;;;;;;36.05;30.65;98653.22;5005453;28;20276;-83
2022/08/18 11:30:51;;;;;;;5.38;3.60;;;;;;;36.12;30.18;98646.75;5015289;28;20226;-82
2022/08/18 11:33:19;;;;;;;6.10;3.95;;;;;;;36.21;30.00;98643.53;5029362;28;20226;-84
2022/08/18 11:36:06;;;;;;;5.20;3.45;;;;;;;36.17;28.32;98649.94;5033372;28;20243;-81
2022/08/18 11:38:33;;;;;;;4.82;3.65;;;;;;;36.27;28.86;98653.03;5016416;28;20708;-84
2022/08/18 11:41:15;;;;;;;4.20;3.60;;;;;;;36.18;29.54;98654.31;5048999;28;20321;-83
2022/08/18 11:43:44;;;;;;;5.97;3.50;;;;;;;36.08;29.01;98666.31;5021016;28;20226;-83
2022/08/18 11:46:37;;;;;;;6.13;3.83;;;;;;;36.28;29.89;98674.91;5026843;28;20219;-82
2022/08/18 11:49:34;;;;;;;7.47;3.95;;;;;;;36.28;29.85;98680.50;5035000;28;20230;-81
2022/08/18 11:52:26;;;;;;;4.80;3.70;;;;;;;36.44;29.48;98689.06;5031616;28;20239;-82
2022/08/18 11:55:03;;;;;;;5.50;3.50;;;;;;;36.61;28.87;98699.31;5042869;28;20233;-82
2022/08/18 11:57:56;;;;;;;4.10;3.45;;;;;;;36.73;28.96;98697.94;5026173;28;20317;-84
2022/08/18 12:00:45;;;;;;;6.55;3.80;;;;;;;36.70;28.24;98707.16;5022214;28;20237;-81
2022/08/18 12:03:18;;;;;;;6.95;3.63;;;;;;;36.74;27.97;98707.13;5039831;28;20298;-82
2022/08/18 12:05:54;;;;;;;4.07;3.40;;;;;;;36.69;26.67;98700.00;5052094;28;20247;-82
2022/08/18 12:08:36;;;;;;;5.03;3.38;;;;;;;36.87;26.42;98691.41;5048209;28;20710;-82
2022/08/18 12:11:32;;;;;;;5.25;3.20;;;;;;;37.01;26.25;98694.00;5056524;28;20722;-81
2022/08/18 12:14:03;;;;;;;5.85;3.47;;;;;;;37.05;25.90;98689.16;5042994;28;20234;-81
2022/08/18 12:16:51;;;;;;;5.15;3.28;;;;;;;37.11;26.16;98683.94;5049587;28;20363;-85
2022/08/18 12:19:38;;;;;;;3.58;2.83;;;;;;;37.19;26.52;98668.69;5055043;28;20257;-81
2022/08/18 12:22:15;;;;;;;3.83;3.03;;;;;;;37.32;26.25;98650.16;5016236;28;20325;-82